x

West Santa Barbara 38 Nm West Of Santa Barbara, Ca (46054) Wave Buoy

10:50 - Sun 24th May 2015 All times are PDT. -7 hours from GMT.

  • Sig Wave height 5.2ft
  • Swell Direction
  • Peak Period 8s
  • Average Period 5s
  • Wind
    20mph, 25mph gusts
  • Sea Temp 55°f
  • Luft Temp 56°f
  • Sea Pressure 1016.9mb
  • West Santa Barbara  38 Nm West Of Santa Barbara, Ca
  • West Santa Barbara  38 Nm West Of Santa Barbara, Ca

More Historic Weather Station data

Upgrade to MSW Pro to gain access to the past 30 days of data for over 8000 Wavebouys and Weather Stations around the globe.

Join Pro

Comparision Forecast

View Surf forecast
   
So 05/24 10:50 5ft 8s 5s 20 25 mph 1016.9mb 55f 56f
9:50 5ft 9s 5s 20 25 mph 1016.9mb 55f 56f
8:50 5ft 8s 5s 20 22 mph 1016.9mb 55f 55f
7:50 6ft 8s 5s 22 27 mph 1016.7mb 55f 55f
6:50 6ft 8s 6s 22 27 mph 1016.4mb 55f 55f
5:50 6ft 8s 6s 25 29 mph 1015.6mb 55f 55f
4:50 6ft 8s 6s 22 27 mph 1015.7mb 55f 55f
3:50 6ft 8s 6s 20 25 mph 1016.1mb 55f 55f
2:50 6.5ft 8s 6s 18 22 mph 1016.4mb 55f 56f
1:50 6ft 7s 6s 20 25 mph 1016.2mb 56f 56f
12:50 6.5ft 9s 6s 18 22 mph 1016.9mb 56f 56f
Sa 05/23 11:50 6ft 8s 6s 18 22 mph 1017.6mb 56f 56f
10:50 5ft 7s 5s 22 27 mph 1017.4mb 56f 56f
9:50 5ft 6s 5s 22 27 mph 1017.5mb 57f 57f
8:50 5ft 6s 5s 22 27 mph 1017.5mb 57f 57f
7:50 4.5ft 7s 5s 25 31 mph 1017.2mb 57f 57f
6:50 5ft 5s 5s 25 29 mph 1017.1mb 57f 57f
5:50 4.5ft 6s 5s 25 29 mph 1017.1mb 57f 57f
4:50 5ft 6s 5s 22 29 mph 1017.2mb 57f 57f
3:50 5ft 11s 5s 22 27 mph 1017.9mb 57f 57f
2:50 4.5ft 11s 5s 25 27 mph 1018.3mb 57f 57f
1:50 4.5ft 11s 5s 20 25 mph 1018.6mb 57f 56f
12:50 4ft 11s 5s 18 22 mph 1019.3mb 57f 57f
11:50 4.5ft 9s 5s 16 18 mph 1019.6mb 57f 56f
10:50 4.5ft 11s 5s 20 22 mph 1019.5mb 57f 56f
9:50 4.5ft 11s 5s 20 25 mph 1019.3mb 57f 57f
8:50 4ft 10s 5s 20 22 mph 1019.1mb 57f 57f
7:50 3.5ft 10s 5s 20 22 mph 1018.8mb 57f 57f
6:50 4ft 10s 5s 16 20 mph 1018.7mb 57f 57f
5:50 4ft 11s 5s 20 25 mph 1018.1mb 57f 57f
4:50 4ft 11s 5s 20 25 mph 1018mb 57f 57f
3:50 3.5ft 11s 5s 18 25 mph 1017.7mb 57f 57f
2:50 3.5ft 11s 5s 20 22 mph 1017.5mb 57f 57f
1:50 3.5ft 11s 5s 20 22 mph 1017.7mb 58f 57f
12:50 3.5ft 12s 5s 18 20 mph 1018mb 58f 57f
Fr 05/22 11:50 3.5ft 11s 5s 16 20 mph 1018mb 58f 57f
10:50 4ft 11s 5s 18 22 mph 1018.2mb 58f 58f
9:50 4ft 11s 5s 16 20 mph 1018.1mb 58f 58f
8:50 4ft 11s 5s 18 20 mph 1017.7mb 58f 58f
7:50 4ft 11s 5s 18 22 mph 1017.1mb 58f 58f
6:50 3.5ft 11s 5s 18 20 mph 1016.6mb 58f 59f
5:50 3.5ft 12s 5s 16 18 mph 1016.5mb 58f 59f
4:50 3.5ft 11s 6s 16 20 mph 1016.3mb 58f 59f
3:50 3.5ft 12s 6s 18 20 mph 1016.1mb 58f 58f
2:50 3.5ft 11s 6s 16 18 mph 1016.5mb 58f 58f
1:50 3.5ft 13s 6s 16 18 mph 1016.7mb 58f 58f
12:50 3.5ft 12s 6s 13 16 mph 1016.8mb 58f 57f
11:50 3.5ft 11s 7s 11 13 mph 1017.2mb 58f 57f
10:50 4ft 12s 7s 11 13 mph 1017mb 58f 57f
9:50 3.5ft 13s 7s 11 13 mph 1016.8mb 58f 57f
8:50 3ft 12s 7s 11 13 mph 1016.3mb 58f 57f
7:50 3.5ft 13s 7s 11 13 mph 1016mb 58f 57f
6:50 3.5ft 12s 8s 13 16 mph 1015.7mb 57f 57f
5:50 3ft 13s 8s 11 13 mph 1015.5mb 58f 57f
4:50 3ft 13s 8s 11 13 mph 1015.3mb 58f 57f
3:50 2.5ft 13s 8s 9 11 mph 1015mb 58f 57f
2:50 3ft 13s 8s 9 11 mph 1015.2mb 58f 57f
1:50 3ft 13s 7s 9 11 mph 1015.4mb 57f 57f
12:50 3.5ft 13s 7s 11
mph
1015.4mb 57f 58f
Do 05/21 11:50 3ft 13s 7s 9 11 mph 1015.5mb 58f 57f
10:50 3.5ft 13s 7s 9
mph
1015.5mb 58f 58f
9:50 3.5ft 13s 7s 9 11 mph 1015.4mb 58f 58f
8:50 3ft 13s 7s 7 9 mph 1015mb 58f 58f
7:50 3ft 13s 6s 9 11 mph 1014.7mb 58f 58f
6:50 3ft 13s 6s 11
mph
1014.2mb 58f 58f
5:50 3ft 14s 7s 13 16 mph 1014.4mb 58f 59f
4:50 3ft 14s 6s 11 13 mph 1014.3mb 58f 58f
3:50 3ft 14s 7s 9 11 mph 1014.7mb 58f 58f
2:50 3ft 14s 7s 11 13 mph 1014.9mb 58f 58f
1:50 3ft 14s 6s 11 13 mph 1015.3mb 58f 57f
12:50 3.5ft 14s 6s 13
mph
1015.5mb 58f 57f
11:50 3.5ft 14s 6s 13 16 mph 1015.5mb 57f 56f
10:50 4ft 14s 7s 11
mph
1015.1mb 57f 56f
9:50 3.5ft 14s 6s 9 11 mph 1015.1mb 57f 56f
8:50 3.5ft 14s 6s 11 13 mph 1015.2mb 56f 56f
7:50 3.5ft 11s 6s 11 13 mph 1015.1mb 56f 56f
6:50 3.5ft 14s 6s 13 16 mph 1014.9mb 56f 56f
5:50 3.5ft 11s 6s 11
mph
1014.3mb 56f 56f
4:50 3.5ft 10s 6s 11 13 mph 1014.1mb 56f 56f
3:50 3.5ft 10s 6s 11 13 mph 1014.1mb 56f 56f
2:50 3.5ft 11s 6s 11 16 mph 1014mb 56f 56f
1:50 3.5ft 11s 5s 13 16 mph 1014.4mb 56f 56f
12:50 4ft 11s 5s 16 18 mph 1014.6mb 56f 56f
Mi 05/20 11:50 4ft 11s 5s 18 22 mph 1014.5mb 56f 56f
10:50 3.5ft 11s 5s 20 22 mph 1014.8mb 56f 56f
9:50 4ft 11s 6s 18 22 mph 1014.3mb 56f 56f
8:50 4.5ft 11s 6s 16 18 mph 1014.2mb 56f 56f
7:50 4.5ft 11s 5s 16 20 mph 1013.7mb 56f 57f